Wetterdaten: aktuell Montag, 18.06.2018 01:30
Datum Zeit Temp. A. Feuchte A. Luftdruck Regen Wind Sonnenschein ET UV Solar Taupunkt Windchill Windben
18.06.2018 01:30 15,3 C 83 % 1019,3 hPa 0,0 l/m 0,1 km/h (0 Bft) 0 min 0,025 mm 0,0 UV-I 0 W/m 12,4 C 15,3 C 1,6 km/h (1 Bft)
18.06.2018 00:30 15,0 C 85 % 1018,9 hPa 0,0 l/m 0,0 km/h (0 Bft) 0 min 0,000 mm 0,0 UV-I 0 W/m 12,5 C 15,0 C 1,6 km/h (1 Bft)
17.06.2018 23:30 15,9 C 83 % 1018,7 hPa 0,0 l/m 0,0 km/h (0 Bft) 0 min 0,026 mm 0,0 UV-I 0 W/m 13,0 C 15,9 C 0,0 km/h (0 Bft)
17.06.2018 22:30 16,7 C 77 % 1018,3 hPa 0,0 l/m 0,8 km/h (0 Bft) 0 min 0,000 mm 0,0 UV-I 0 W/m 12,6 C 16,7 C 3,2 km/h (1 Bft)
17.06.2018 21:30 17,6 C 71 % 1017,8 hPa 0,0 l/m 0,4 km/h (0 Bft) 0 min 0,025 mm 0,0 UV-I 0 W/m 12,3 C 17,6 C 1,6 km/h (1 Bft)
17.06.2018 20:30 18,7 C 68 % 1017,1 hPa 0,0 l/m 0,3 km/h (0 Bft) 2 min 0,051 mm 0,0 UV-I 18 W/m 12,7 C 18,7 C 3,2 km/h (1 Bft)
17.06.2018 19:30 19,5 C 67 % 1016,6 hPa 0,0 l/m 1,6 km/h (1 Bft) 50 min 0,076 mm 0,0 UV-I 53 W/m 13,2 C 19,5 C 4,8 km/h (1 Bft)
17.06.2018 18:30 20,4 C 62 % 1016,0 hPa 0,0 l/m 2,3 km/h (1 Bft) 60 min 0,102 mm 0,0 UV-I 95 W/m 12,9 C 20,4 C 6,4 km/h (2 Bft)
17.06.2018 17:30 21,9 C 63 % 1015,7 hPa 0,0 l/m 2,8 km/h (1 Bft) 60 min 0,127 mm 0,5 UV-I 151 W/m 14,5 C 21,9 C 8,0 km/h (2 Bft)
17.06.2018 16:30 22,8 C 62 % 1015,5 hPa 0,0 l/m 4,4 km/h (1 Bft) 60 min 0,254 mm 1,6 UV-I 192 W/m 15,1 C 22,8 C 11,3 km/h (2 Bft)
17.06.2018 15:30 24,2 C 55 % 1015,4 hPa 0,0 l/m 2,5 km/h (1 Bft) 60 min 0,406 mm 1,2 UV-I 379 W/m 14,6 C 24,2 C 8,0 km/h (2 Bft)
17.06.2018 14:30 22,8 C 59 % 1015,9 hPa 0,0 l/m 3,0 km/h (1 Bft) 60 min 0,406 mm 1,0 UV-I 222 W/m 14,4 C 22,8 C 6,4 km/h (2 Bft)
17.06.2018 13:30 22,4 C 65 % 1016,1 hPa 0,0 l/m 0,5 km/h (0 Bft) 60 min 0,381 mm 4,5 UV-I 601 W/m 15,5 C 22,4 C 3,2 km/h (1 Bft)
17.06.2018 12:30 21,4 C 65 % 1016,5 hPa 0,0 l/m 2,2 km/h (1 Bft) 60 min 0,229 mm 4,1 UV-I 866 W/m 14,5 C 21,4 C 4,8 km/h (1 Bft)
17.06.2018 11:30 18,5 C 73 % 1016,6 hPa 0,0 l/m 2,1 km/h (1 Bft) 60 min 0,178 mm 1,2 UV-I 214 W/m 13,6 C 18,5 C 4,8 km/h (1 Bft)
17.06.2018 10:30 18,8 C 71 % 1016,2 hPa 0,0 l/m 5,4 km/h (1 Bft) 60 min 0,178 mm 1,3 UV-I 300 W/m 13,4 C 18,8 C 9,7 km/h (2 Bft)
17.06.2018 09:30 18,2 C 74 % 1015,7 hPa 0,0 l/m 2,4 km/h (1 Bft) 60 min 0,152 mm 0,8 UV-I 205 W/m 13,5 C 18,2 C 4,8 km/h (1 Bft)
17.06.2018 08:30 18,0 C 78 % 1015,2 hPa 0,0 l/m 4,3 km/h (1 Bft) 60 min 0,102 mm 0,0 UV-I 204 W/m 14,1 C 18,0 C 11,3 km/h (2 Bft)
17.06.2018 07:30 16,3 C 86 % 1015,0 hPa 0,0 l/m 5,9 km/h (2 Bft) 42 min 0,025 mm 0,0 UV-I 230 W/m 14,0 C 16,3 C 11,3 km/h (2 Bft)
17.06.2018 06:31 14,4 C 89 % 1015,0 hPa 0,0 l/m 0,0 km/h (0 Bft) 5 min 0,000 mm 0,0 UV-I 70 W/m 12,6 C 14,4 C 1,6 km/h (1 Bft)
17.06.2018 05:32 13,9 C 88 % 1014,6 hPa 0,0 l/m 2,5 km/h (1 Bft) 0 min 0,000 mm 0,0 UV-I 5 W/m 11,9 C 13,9 C 4,8 km/h (1 Bft)
17.06.2018 04:32 14,6 C 86 % 1014,6 hPa 0,0 l/m 0,4 km/h (0 Bft) 0 min 0,000 mm 0,0 UV-I 0 W/m 12,3 C 14,6 C 3,2 km/h (1 Bft)
17.06.2018 03:32 14,7 C 87 % 1014,6 hPa 0,0 l/m 0,3 km/h (0 Bft) 0 min 0,000 mm 0,0 UV-I 0 W/m 12,6 C 14,7 C 3,2 km/h (1 Bft)
17.06.2018 02:32 14,6 C 87 % 1014,3 hPa 0,0 l/m 0,2 km/h (0 Bft) 0 min 0,000 mm 0,0 UV-I 0 W/m 12,5 C 14,6 C 1,6 km/h (1 Bft)
17.06.2018 02:00 14,5 C 87 % 1014,5 hPa 0,0 l/m 0,4 km/h (0 Bft) 0 min 0,000 mm 0,0 UV-I 0 W/m 12,4 C 14,5 C 3,2 km/h (1 Bft)
_ Min-Zeit 05:50 15:18 02:26 - 02:06 - - - - 05:30 05:50 02:06
Minimum _ 13,8 C 54 % 1014,3 hPa - 0,0 km/h (0 Bft) - - - - 11,8 C 13,8 C 0,0 km/h (0 Bft)
_ Max-Zeit 15:02 06:10 00:48 02:00 09:06 06:28 14:02 13:32 13:12 15:00 15:02 09:28
Maximum _ 24,7 C 89 % 1019,3 hPa 0,0 l/m 10,6 km/h
NW (2 Bft)
2 min 0,406 mm 4,7 UV-I 987 W/m 16,6 C 24,7 C 22,5 km/h
N (4 Bft)
Durchschnitt _ 18,0 C 75 % 1016,0 hPa #0,0 l/m 2,1 km/h (1 Bft) #0 min. #0,025 mm 0,0 UV-I 0 W/m 13,3 C 18,0 C 6,0 km/h (2 Bft)